sensor_id;sensor_type;location;lat;lon;timestamp;P1;durP1;ratioP1;P2;durP2;ratioP2
19944;SDS011;10134;50.952;6.930;2022-11-15T05:15:14;7.35;;;5.05;;
19944;SDS011;10134;50.952;6.930;2022-11-15T05:18:00;6.00;;;4.57;;
19944;SDS011;10134;50.952;6.930;2022-11-15T05:20:46;9.88;;;4.78;;
19944;SDS011;10134;50.952;6.930;2022-11-15T05:23:32;8.43;;;5.47;;
19944;SDS011;10134;50.952;6.930;2022-11-15T05:26:19;5.65;;;4.03;;
19944;SDS011;10134;50.952;6.930;2022-11-15T05:29:05;5.18;;;4.43;;
19944;SDS011;10134;50.952;6.930;2022-11-15T05:31:51;8.48;;;4.63;;
19944;SDS011;10134;50.952;6.930;2022-11-15T05:34:37;7.28;;;4.95;;
19944;SDS011;10134;50.952;6.930;2022-11-15T05:37:22;5.68;;;3.90;;
19944;SDS011;10134;50.952;6.930;2022-11-15T05:40:08;6.53;;;4.45;;
19944;SDS011;10134;50.952;6.930;2022-11-15T05:42:54;6.93;;;5.03;;
19944;SDS011;10134;50.952;6.930;2022-11-15T05:45:40;6.18;;;4.72;;
19944;SDS011;10134;50.952;6.930;2022-11-15T05:48:26;8.65;;;4.82;;
19944;SDS011;10134;50.952;6.930;2022-11-15T05:51:12;5.93;;;4.22;;
19944;SDS011;10134;50.952;6.930;2022-11-15T05:54:00;6.05;;;4.18;;
19944;SDS011;10134;50.952;6.930;2022-11-15T05:56:47;8.25;;;4.95;;
19944;SDS011;10134;50.952;6.930;2022-11-15T05:59:34;7.75;;;4.97;;
19944;SDS011;10134;50.952;6.930;2022-11-15T06:02:20;7.05;;;4.65;;
19944;SDS011;10134;50.952;6.930;2022-11-15T06:05:06;7.25;;;4.80;;
19944;SDS011;10134;50.952;6.930;2022-11-15T06:07:52;5.25;;;3.72;;
19944;SDS011;10134;50.952;6.930;2022-11-15T06:10:42;5.47;;;4.13;;
19944;SDS011;10134;50.952;6.930;2022-11-15T06:13:28;5.97;;;4.80;;
19944;SDS011;10134;50.952;6.930;2022-11-15T06:16:14;5.68;;;3.97;;
19944;SDS011;10134;50.952;6.930;2022-11-15T06:19:00;6.05;;;4.57;;
19944;SDS011;10134;50.952;6.930;2022-11-15T06:21:46;8.45;;;4.72;;
19944;SDS011;10134;50.952;6.930;2022-11-15T06:24:31;5.55;;;3.92;;
19944;SDS011;10134;50.952;6.930;2022-11-15T06:27:17;5.53;;;4.25;;
19944;SDS011;10134;50.952;6.930;2022-11-15T06:30:03;4.43;;;3.95;;
19944;SDS011;10134;50.952;6.930;2022-11-15T06:32:49;6.13;;;4.05;;
19944;SDS011;10134;50.952;6.930;2022-11-15T06:35:36;5.72;;;3.92;;
19944;SDS011;10134;50.952;6.930;2022-11-15T06:38:22;6.97;;;3.78;;
19944;SDS011;10134;50.952;6.930;2022-11-15T06:41:08;5.00;;;3.40;;
19944;SDS011;10134;50.952;6.930;2022-11-15T06:43:56;6.45;;;3.75;;
19944;SDS011;10134;50.952;6.930;2022-11-15T06:46:42;4.55;;;3.15;;
19944;SDS011;10134;50.952;6.930;2022-11-15T06:49:28;5.90;;;3.80;;
19944;SDS011;10134;50.952;6.930;2022-11-15T06:52:14;4.93;;;3.28;;
19944;SDS011;10134;50.952;6.930;2022-11-15T06:55:00;6.20;;;3.50;;
19944;SDS011;10134;50.952;6.930;2022-11-15T06:57:50;4.35;;;3.22;;
19944;SDS011;10134;50.952;6.930;2022-11-15T07:00:36;6.72;;;3.60;;
19944;SDS011;10134;50.952;6.930;2022-11-15T07:03:22;6.95;;;3.28;;
19944;SDS011;10134;50.952;6.930;2022-11-15T07:06:08;6.72;;;3.33;;
19944;SDS011;10134;50.952;6.930;2022-11-15T07:08:55;3.05;;;2.55;;
19944;SDS011;10134;50.952;6.930;2022-11-15T07:11:41;4.20;;;3.03;;
19944;SDS011;10134;50.952;6.930;2022-11-15T07:14:27;4.32;;;2.65;;
19944;SDS011;10134;50.952;6.930;2022-11-15T07:17:13;3.70;;;2.80;;
19944;SDS011;10134;50.952;6.930;2022-11-15T07:19:58;5.57;;;3.10;;
19944;SDS011;10134;50.952;6.930;2022-11-15T07:22:44;3.25;;;2.40;;
19944;SDS011;10134;50.952;6.930;2022-11-15T07:25:30;7.78;;;2.95;;
19944;SDS011;10134;50.952;6.930;2022-11-15T07:28:17;6.47;;;3.53;;
19944;SDS011;10134;50.952;6.930;2022-11-15T07:31:03;6.60;;;3.10;;
19944;SDS011;10134;50.952;6.930;2022-11-15T07:33:50;5.18;;;3.58;;
19944;SDS011;10134;50.952;6.930;2022-11-15T07:36:36;4.78;;;3.10;;
19944;SDS011;10134;50.952;6.930;2022-11-15T07:39:22;4.28;;;3.47;;
19944;SDS011;10134;50.952;6.930;2022-11-15T07:42:08;7.75;;;3.17;;
19944;SDS011;10134;50.952;6.930;2022-11-15T07:45:13;9.63;;;3.35;;
19944;SDS011;10134;50.952;6.930;2022-11-15T07:47:59;4.15;;;2.90;;
19944;SDS011;10134;50.952;6.930;2022-11-15T07:50:45;4.68;;;2.80;;
19944;SDS011;10134;50.952;6.930;2022-11-15T07:53:31;5.40;;;2.97;;
19944;SDS011;10134;50.952;6.930;2022-11-15T07:56:18;4.78;;;3.35;;
19944;SDS011;10134;50.952;6.930;2022-11-15T07:59:05;5.97;;;2.47;;
19944;SDS011;10134;50.952;6.930;2022-11-15T08:01:51;4.70;;;2.45;;
19944;SDS011;10134;50.952;6.930;2022-11-15T08:04:37;4.95;;;2.42;;
19944;SDS011;10134;50.952;6.930;2022-11-15T08:07:23;5.93;;;2.08;;
19944;SDS011;10134;50.952;6.930;2022-11-15T08:10:09;4.68;;;2.10;;
19944;SDS011;10134;50.952;6.930;2022-11-15T08:13:00;1.92;;;1.67;;
19944;SDS011;10134;50.952;6.930;2022-11-15T08:15:47;3.13;;;1.70;;
19944;SDS011;10134;50.952;6.930;2022-11-15T08:18:40;1.92;;;1.73;;
19944;SDS011;10134;50.952;6.930;2022-11-15T08:21:26;4.25;;;1.85;;
19944;SDS011;10134;50.952;6.930;2022-11-15T08:24:12;3.95;;;2.03;;
19944;SDS011;10134;50.952;6.930;2022-11-15T08:26:58;7.15;;;3.03;;
19944;SDS011;10134;50.952;6.930;2022-11-15T08:29:44;6.80;;;2.78;;
19944;SDS011;10134;50.952;6.930;2022-11-15T08:32:31;3.25;;;2.58;;
19944;SDS011;10134;50.952;6.930;2022-11-15T08:35:17;4.18;;;2.50;;
19944;SDS011;10134;50.952;6.930;2022-11-15T08:38:09;3.92;;;1.95;;
19944;SDS011;10134;50.952;6.930;2022-11-15T08:40:59;6.13;;;2.05;;
19944;SDS011;10134;50.952;6.930;2022-11-15T08:43:47;3.67;;;1.30;;
19944;SDS011;10134;50.952;6.930;2022-11-15T08:46:33;4.32;;;1.75;;
19944;SDS011;10134;50.952;6.930;2022-11-15T08:49:19;4.38;;;1.70;;
19944;SDS011;10134;50.952;6.930;2022-11-15T08:52:05;2.72;;;1.70;;
19944;SDS011;10134;50.952;6.930;2022-11-15T08:54:51;3.58;;;1.40;;
19944;SDS011;10134;50.952;6.930;2022-11-15T08:57:37;1.27;;;1.02;;
19944;SDS011;10134;50.952;6.930;2022-11-15T09:00:23;4.18;;;1.40;;
19944;SDS011;10134;50.952;6.930;2022-11-15T09:03:08;5.40;;;1.90;;
19944;SDS011;10134;50.952;6.930;2022-11-15T09:05:55;2.50;;;1.58;;
19944;SDS011;10134;50.952;6.930;2022-11-15T09:08:42;1.67;;;1.17;;
19944;SDS011;10134;50.952;6.930;2022-11-15T09:11:32;3.97;;;1.90;;
19944;SDS011;10134;50.952;6.930;2022-11-15T09:14:18;3.65;;;1.80;;
19944;SDS011;10134;50.952;6.930;2022-11-15T09:17:07;7.20;;;2.15;;
19944;SDS011;10134;50.952;6.930;2022-11-15T09:19:54;1.63;;;0.95;;
19944;SDS011;10134;50.952;6.930;2022-11-15T09:22:40;4.95;;;1.02;;
19944;SDS011;10134;50.952;6.930;2022-11-15T09:25:26;3.65;;;1.20;;
19944;SDS011;10134;50.952;6.930;2022-11-15T09:28:13;1.88;;;1.15;;
19944;SDS011;10134;50.952;6.930;2022-11-15T09:30:59;2.95;;;1.50;;
19944;SDS011;10134;50.952;6.930;2022-11-15T09:33:46;3.67;;;1.38;;
19944;SDS011;10134;50.952;6.930;2022-11-15T09:36:32;3.00;;;1.10;;
19944;SDS011;10134;50.952;6.930;2022-11-15T09:39:18;7.50;;;1.30;;
19944;SDS011;10134;50.952;6.930;2022-11-15T09:42:10;6.35;;;2.13;;
19944;SDS011;10134;50.952;6.930;2022-11-15T09:45:13;2.58;;;1.20;;
19944;SDS011;10134;50.952;6.930;2022-11-15T09:51:30;2.90;;;1.45;;
19944;SDS011;10134;50.952;6.930;2022-11-15T09:56:51;2.25;;;1.02;;
19944;SDS011;10134;50.952;6.930;2022-11-15T10:02:15;1.05;;;0.70;;
19944;SDS011;10134;50.952;6.930;2022-11-15T10:05:10;2.28;;;0.90;;
19944;SDS011;10134;50.952;6.930;2022-11-15T10:07:46;2.40;;;0.88;;
19944;SDS011;10134;50.952;6.930;2022-11-15T10:10:39;1.05;;;0.80;;
19944;SDS011;10134;50.952;6.930;2022-11-15T10:13:12;2.30;;;0.70;;
19944;SDS011;10134;50.952;6.930;2022-11-15T10:15:45;1.77;;;0.95;;
19944;SDS011;10134;50.952;6.930;2022-11-15T10:18:16;5.47;;;1.30;;
19944;SDS011;10134;50.952;6.930;2022-11-15T10:23:14;2.80;;;1.00;;
19944;SDS011;10134;50.952;6.930;2022-11-15T10:25:44;2.15;;;1.20;;
19944;SDS011;10134;50.952;6.930;2022-11-15T10:30:44;3.25;;;1.00;;
19944;SDS011;10134;50.952;6.930;2022-11-15T10:35:46;1.08;;;0.80;;
19944;SDS011;10134;50.952;6.930;2022-11-15T10:38:13;4.40;;;1.83;;
19944;SDS011;10134;50.952;6.930;2022-11-15T10:40:41;6.95;;;2.35;;
19944;SDS011;10134;50.952;6.930;2022-11-15T10:43:27;4.53;;;1.27;;
19944;SDS011;10134;50.952;6.930;2022-11-15T10:45:55;3.92;;;0.90;;
19944;SDS011;10134;50.952;6.930;2022-11-15T10:51:53;9.38;;;1.92;;
19944;SDS011;10134;50.952;6.930;2022-11-15T10:54:30;3.17;;;0.80;;
19944;SDS011;10134;50.952;6.930;2022-11-15T10:57:06;3.55;;;0.80;;
19944;SDS011;10134;50.952;6.930;2022-11-15T10:59:37;3.92;;;0.88;;
19944;SDS011;10134;50.952;6.930;2022-11-15T11:05:00;1.92;;;0.77;;
19944;SDS011;10134;50.952;6.930;2022-11-15T11:07:30;3.95;;;0.98;;
19944;SDS011;10134;50.952;6.930;2022-11-15T11:10:18;3.22;;;0.75;;
19944;SDS011;10134;50.952;6.930;2022-11-15T11:13:22;5.30;;;2.65;;
19944;SDS011;10134;50.952;6.930;2022-11-15T11:18:48;1.75;;;0.50;;
19944;SDS011;10134;50.952;6.930;2022-11-15T11:21:26;1.40;;;0.88;;
19944;SDS011;10134;50.952;6.930;2022-11-15T11:38:17;1.35;;;0.65;;
19944;SDS011;10134;50.952;6.930;2022-11-15T11:46:01;4.80;;;0.55;;
19944;SDS011;10134;50.952;6.930;2022-11-15T11:48:43;4.55;;;1.52;;
19944;SDS011;10134;50.952;6.930;2022-11-15T11:51:47;2.38;;;1.08;;
19944;SDS011;10134;50.952;6.930;2022-11-15T11:54:50;2.97;;;0.70;;
19944;SDS011;10134;50.952;6.930;2022-11-15T11:57:39;0.63;;;0.40;;
19944;SDS011;10134;50.952;6.930;2022-11-15T12:05:43;2.67;;;0.63;;
19944;SDS011;10134;50.952;6.930;2022-11-15T12:11:34;1.92;;;0.50;;
19944;SDS011;10134;50.952;6.930;2022-11-15T12:14:18;2.53;;;0.75;;
19944;SDS011;10134;50.952;6.930;2022-11-15T12:17:02;1.55;;;0.70;;
19944;SDS011;10134;50.952;6.930;2022-11-15T12:19:29;4.55;;;0.75;;
19944;SDS011;10134;50.952;6.930;2022-11-15T12:22:04;3.60;;;0.80;;
19944;SDS011;10134;50.952;6.930;2022-11-15T12:24:46;1.50;;;0.63;;
19944;SDS011;10134;50.952;6.930;2022-11-15T12:27:43;3.80;;;0.88;;
19944;SDS011;10134;50.952;6.930;2022-11-15T12:30:24;1.98;;;1.02;;
19944;SDS011;10134;50.952;6.930;2022-11-15T12:33:15;1.70;;;0.95;;
19944;SDS011;10134;50.952;6.930;2022-11-15T12:36:03;2.00;;;1.25;;
19944;SDS011;10134;50.952;6.930;2022-11-15T12:41:34;2.22;;;1.15;;
19944;SDS011;10134;50.952;6.930;2022-11-15T12:47:04;2.72;;;0.90;;
19944;SDS011;10134;50.952;6.930;2022-11-15T12:49:49;3.55;;;1.40;;
19944;SDS011;10134;50.952;6.930;2022-11-15T12:52:17;4.05;;;1.65;;
19944;SDS011;10134;50.952;6.930;2022-11-15T12:54:49;3.80;;;0.93;;
19944;SDS011;10134;50.952;6.930;2022-11-15T12:57:30;3.40;;;1.20;;
19944;SDS011;10134;50.952;6.930;2022-11-15T13:02:51;3.53;;;0.95;;
19944;SDS011;10134;50.952;6.930;2022-11-15T13:05:51;3.72;;;1.35;;
19944;SDS011;10134;50.952;6.930;2022-11-15T13:11:42;1.45;;;0.80;;
19944;SDS011;10134;50.952;6.930;2022-11-15T13:17:12;3.25;;;1.10;;
19944;SDS011;10134;50.952;6.930;2022-11-15T13:19:47;2.42;;;1.00;;
19944;SDS011;10134;50.952;6.930;2022-11-15T13:22:45;2.13;;;1.02;;
19944;SDS011;10134;50.952;6.930;2022-11-15T13:28:31;1.75;;;1.10;;
19944;SDS011;10134;50.952;6.930;2022-11-15T13:31:15;2.85;;;1.38;;
19944;SDS011;10134;50.952;6.930;2022-11-15T13:33:51;3.28;;;1.58;;
19944;SDS011;10134;50.952;6.930;2022-11-15T13:36:22;1.98;;;1.30;;
19944;SDS011;10134;50.952;6.930;2022-11-15T13:38:59;5.47;;;1.67;;
19944;SDS011;10134;50.952;6.930;2022-11-15T13:41:32;2.60;;;1.58;;
19944;SDS011;10134;50.952;6.930;2022-11-15T13:44:01;5.30;;;1.77;;
19944;SDS011;10134;50.952;6.930;2022-11-15T13:46:31;3.78;;;2.20;;
19944;SDS011;10134;50.952;6.930;2022-11-15T13:49:01;3.08;;;1.75;;
19944;SDS011;10134;50.952;6.930;2022-11-15T13:51:49;2.65;;;1.63;;
19944;SDS011;10134;50.952;6.930;2022-11-15T13:54:22;2.60;;;1.40;;
19944;SDS011;10134;50.952;6.930;2022-11-15T13:56:55;3.92;;;1.52;;
19944;SDS011;10134;50.952;6.930;2022-11-15T13:59:47;3.25;;;1.63;;
19944;SDS011;10134;50.952;6.930;2022-11-15T14:02:25;2.55;;;1.73;;
19944;SDS011;10134;50.952;6.930;2022-11-15T14:04:56;4.28;;;1.95;;
19944;SDS011;10134;50.952;6.930;2022-11-15T14:07:28;5.00;;;2.10;;
19944;SDS011;10134;50.952;6.930;2022-11-15T14:09:56;4.05;;;1.63;;
19944;SDS011;10134;50.952;6.930;2022-11-15T14:14:54;4.50;;;1.90;;
19944;SDS011;10134;50.952;6.930;2022-11-15T14:19:58;4.72;;;2.13;;
19944;SDS011;10134;50.952;6.930;2022-11-15T14:22:27;9.93;;;2.08;;
19944;SDS011;10134;50.952;6.930;2022-11-15T14:30:40;6.10;;;3.17;;
19944;SDS011;10134;50.952;6.930;2022-11-15T14:36:12;3.13;;;2.08;;
19944;SDS011;10134;50.952;6.930;2022-11-15T14:38:41;5.22;;;2.63;;
19944;SDS011;10134;50.952;6.930;2022-11-15T14:41:12;2.78;;;1.65;;
19944;SDS011;10134;50.952;6.930;2022-11-15T14:43:48;5.15;;;2.88;;
19944;SDS011;10134;50.952;6.930;2022-11-15T14:46:16;5.43;;;3.13;;
19944;SDS011;10134;50.952;6.930;2022-11-15T14:48:43;4.78;;;3.08;;
19944;SDS011;10134;50.952;6.930;2022-11-15T14:51:11;4.72;;;3.08;;
19944;SDS011;10134;50.952;6.930;2022-11-15T14:53:41;8.75;;;3.55;;
19944;SDS011;10134;50.952;6.930;2022-11-15T14:56:10;8.38;;;5.28;;
19944;SDS011;10134;50.952;6.930;2022-11-15T14:58:39;3.15;;;1.75;;
19944;SDS011;10134;50.952;6.930;2022-11-15T15:01:11;7.85;;;2.30;;
19944;SDS011;10134;50.952;6.930;2022-11-15T15:03:51;3.15;;;1.92;;
19944;SDS011;10134;50.952;6.930;2022-11-15T15:06:19;3.25;;;1.95;;
19944;SDS011;10134;50.952;6.930;2022-11-15T15:08:46;5.03;;;2.78;;
19944;SDS011;10134;50.952;6.930;2022-11-15T15:11:20;5.40;;;1.80;;
19944;SDS011;10134;50.952;6.930;2022-11-15T15:13:50;2.63;;;1.45;;
19944;SDS011;10134;50.952;6.930;2022-11-15T15:16:18;4.53;;;2.53;;
19944;SDS011;10134;50.952;6.930;2022-11-15T15:18:45;2.78;;;1.70;;
19944;SDS011;10134;50.952;6.930;2022-11-15T15:21:31;2.78;;;1.73;;
19944;SDS011;10134;50.952;6.930;2022-11-15T15:24:03;13.57;;;7.00;;
19944;SDS011;10134;50.952;6.930;2022-11-15T15:26:30;4.88;;;1.88;;
19944;SDS011;10134;50.952;6.930;2022-11-15T15:29:01;8.02;;;1.65;;
19944;SDS011;10134;50.952;6.930;2022-11-15T15:31:29;2.53;;;1.40;;
19944;SDS011;10134;50.952;6.930;2022-11-15T15:33:56;2.38;;;1.23;;
19944;SDS011;10134;50.952;6.930;2022-11-15T15:36:23;2.83;;;1.30;;
19944;SDS011;10134;50.952;6.930;2022-11-15T15:38:50;2.10;;;1.30;;
19944;SDS011;10134;50.952;6.930;2022-11-15T15:41:19;2.10;;;1.35;;
19944;SDS011;10134;50.952;6.930;2022-11-15T15:43:46;5.18;;;1.60;;
19944;SDS011;10134;50.952;6.930;2022-11-15T15:46:15;2.55;;;1.25;;
19944;SDS011;10134;50.952;6.930;2022-11-15T15:48:43;2.53;;;1.80;;
19944;SDS011;10134;50.952;6.930;2022-11-15T15:51:11;3.53;;;1.55;;
19944;SDS011;10134;50.952;6.930;2022-11-15T15:53:45;3.00;;;1.45;;
19944;SDS011;10134;50.952;6.930;2022-11-15T15:56:13;5.18;;;1.80;;
19944;SDS011;10134;50.952;6.930;2022-11-15T15:58:41;4.40;;;1.63;;
19944;SDS011;10134;50.952;6.930;2022-11-15T16:01:08;2.60;;;1.60;;
19944;SDS011;10134;50.952;6.930;2022-11-15T16:03:35;3.30;;;2.05;;
19944;SDS011;10134;50.952;6.930;2022-11-15T16:06:03;2.75;;;1.40;;
19944;SDS011;10134;50.952;6.930;2022-11-15T16:08:31;3.70;;;1.38;;
19944;SDS011;10134;50.952;6.930;2022-11-15T16:11:19;4.25;;;1.55;;
19944;SDS011;10134;50.952;6.930;2022-11-15T16:13:46;1.98;;;1.48;;
19944;SDS011;10134;50.952;6.930;2022-11-15T16:16:13;3.35;;;1.38;;
19944;SDS011;10134;50.952;6.930;2022-11-15T16:18:41;1.67;;;1.10;;
19944;SDS011;10134;50.952;6.930;2022-11-15T16:21:08;2.08;;;1.50;;
19944;SDS011;10134;50.952;6.930;2022-11-15T16:23:36;4.35;;;1.40;;
19944;SDS011;10134;50.952;6.930;2022-11-15T16:26:06;5.28;;;1.30;;
19944;SDS011;10134;50.952;6.930;2022-11-15T16:28:47;1.95;;;1.15;;
19944;SDS011;10134;50.952;6.930;2022-11-15T16:31:15;3.72;;;1.45;;
19944;SDS011;10134;50.952;6.930;2022-11-15T16:33:45;4.15;;;1.65;;
19944;SDS011;10134;50.952;6.930;2022-11-15T16:36:23;2.70;;;1.50;;
19944;SDS011;10134;50.952;6.930;2022-11-15T16:38:57;3.75;;;1.38;;
19944;SDS011;10134;50.952;6.930;2022-11-15T16:41:24;3.17;;;1.55;;
19944;SDS011;10134;50.952;6.930;2022-11-15T16:43:52;3.30;;;2.05;;
19944;SDS011;10134;50.952;6.930;2022-11-15T16:46:24;5.38;;;2.20;;
19944;SDS011;10134;50.952;6.930;2022-11-15T16:48:53;3.42;;;1.70;;
19944;SDS011;10134;50.952;6.930;2022-11-15T16:51:21;4.78;;;2.08;;
19944;SDS011;10134;50.952;6.930;2022-11-15T16:53:49;4.20;;;2.28;;
19944;SDS011;10134;50.952;6.930;2022-11-15T16:56:21;1.40;;;1.30;;
19944;SDS011;10134;50.952;6.930;2022-11-15T16:58:54;2.30;;;1.38;;
19944;SDS011;10134;50.952;6.930;2022-11-15T17:01:27;1.92;;;1.38;;
19944;SDS011;10134;50.952;6.930;2022-11-15T17:03:56;3.85;;;1.60;;
19944;SDS011;10134;50.952;6.930;2022-11-15T17:06:24;4.20;;;1.83;;
19944;SDS011;10134;50.952;6.930;2022-11-15T17:08:53;2.30;;;1.45;;
19944;SDS011;10134;50.952;6.930;2022-11-15T17:11:21;4.70;;;2.20;;
19944;SDS011;10134;50.952;6.930;2022-11-15T17:13:48;2.90;;;1.55;;
19944;SDS011;10134;50.952;6.930;2022-11-15T17:16:16;1.98;;;1.63;;
19944;SDS011;10134;50.952;6.930;2022-11-15T17:18:44;3.08;;;2.00;;
19944;SDS011;10134;50.952;6.930;2022-11-15T17:21:16;1.92;;;1.40;;
19944;SDS011;10134;50.952;6.930;2022-11-15T17:23:46;1.88;;;1.58;;
19944;SDS011;10134;50.952;6.930;2022-11-15T17:26:14;5.97;;;2.30;;
19944;SDS011;10134;50.952;6.930;2022-11-15T17:29:02;3.15;;;1.75;;
19944;SDS011;10134;50.952;6.930;2022-11-15T17:31:34;3.28;;;1.63;;
19944;SDS011;10134;50.952;6.930;2022-11-15T17:34:02;3.47;;;1.92;;
19944;SDS011;10134;50.952;6.930;2022-11-15T17:36:31;3.90;;;2.45;;
19944;SDS011;10134;50.952;6.930;2022-11-15T17:38:59;3.22;;;2.00;;
19944;SDS011;10134;50.952;6.930;2022-11-15T17:41:26;2.25;;;1.55;;
19944;SDS011;10134;50.952;6.930;2022-11-15T17:43:55;4.03;;;1.60;;
19944;SDS011;10134;50.952;6.930;2022-11-15T17:46:25;5.50;;;2.40;;
19944;SDS011;10134;50.952;6.930;2022-11-15T17:48:53;5.03;;;2.15;;
19944;SDS011;10134;50.952;6.930;2022-11-15T17:51:22;3.08;;;1.67;;
19944;SDS011;10134;50.952;6.930;2022-11-15T17:53:50;3.63;;;2.30;;
19944;SDS011;10134;50.952;6.930;2022-11-15T17:56:19;3.25;;;1.77;;
19944;SDS011;10134;50.952;6.930;2022-11-15T17:58:51;4.05;;;1.88;;
19944;SDS011;10134;50.952;6.930;2022-11-15T18:03:55;2.63;;;1.83;;
19944;SDS011;10134;50.952;6.930;2022-11-15T18:06:26;5.25;;;2.90;;
19944;SDS011;10134;50.952;6.930;2022-11-15T18:08:56;4.03;;;2.50;;
19944;SDS011;10134;50.952;6.930;2022-11-15T18:13:59;4.50;;;2.33;;
19944;SDS011;10134;50.952;6.930;2022-11-15T18:16:31;4.22;;;2.67;;
19944;SDS011;10134;50.952;6.930;2022-11-15T18:19:02;3.00;;;2.20;;
19944;SDS011;10134;50.952;6.930;2022-11-15T18:21:34;3.10;;;2.20;;
19944;SDS011;10134;50.952;6.930;2022-11-15T18:24:22;5.00;;;2.20;;
19944;SDS011;10134;50.952;6.930;2022-11-15T18:26:50;3.33;;;2.00;;
19944;SDS011;10134;50.952;6.930;2022-11-15T18:29:18;6.07;;;3.20;;
19944;SDS011;10134;50.952;6.930;2022-11-15T18:31:45;3.72;;;2.38;;
19944;SDS011;10134;50.952;6.930;2022-11-15T18:34:15;4.90;;;2.75;;
19944;SDS011;10134;50.952;6.930;2022-11-15T18:36:43;3.55;;;2.55;;
19944;SDS011;10134;50.952;6.930;2022-11-15T18:39:11;3.78;;;2.50;;
19944;SDS011;10134;50.952;6.930;2022-11-15T18:41:42;4.40;;;2.53;;
19944;SDS011;10134;50.952;6.930;2022-11-15T18:44:13;4.82;;;2.80;;
19944;SDS011;10134;50.952;6.930;2022-11-15T18:46:41;4.47;;;2.88;;
19944;SDS011;10134;50.952;6.930;2022-11-15T18:49:11;4.40;;;2.83;;
19944;SDS011;10134;50.952;6.930;2022-11-15T18:51:39;4.65;;;3.08;;
19944;SDS011;10134;50.952;6.930;2022-11-15T18:54:10;6.63;;;3.35;;
19944;SDS011;10134;50.952;6.930;2022-11-15T18:56:38;6.20;;;3.33;;
19944;SDS011;10134;50.952;6.930;2022-11-15T18:59:06;4.95;;;2.72;;
19944;SDS011;10134;50.952;6.930;2022-11-15T19:01:35;7.35;;;2.63;;
19944;SDS011;10134;50.952;6.930;2022-11-15T19:04:05;3.15;;;2.70;;
19944;SDS011;10134;50.952;6.930;2022-11-15T19:06:41;6.50;;;3.03;;
19944;SDS011;10134;50.952;6.930;2022-11-15T19:09:10;4.28;;;3.03;;
19944;SDS011;10134;50.952;6.930;2022-11-15T19:11:41;5.45;;;3.70;;
19944;SDS011;10134;50.952;6.930;2022-11-15T19:14:10;4.28;;;2.90;;
19944;SDS011;10134;50.952;6.930;2022-11-15T19:16:39;4.18;;;3.30;;
19944;SDS011;10134;50.952;6.930;2022-11-15T19:19:12;5.15;;;3.60;;
19944;SDS011;10134;50.952;6.930;2022-11-15T19:21:41;5.65;;;3.35;;
19944;SDS011;10134;50.952;6.930;2022-11-15T19:24:09;7.30;;;4.47;;
19944;SDS011;10134;50.952;6.930;2022-11-15T19:26:36;5.90;;;3.63;;
19944;SDS011;10134;50.952;6.930;2022-11-15T19:29:05;5.57;;;3.85;;
19944;SDS011;10134;50.952;6.930;2022-11-15T19:31:33;4.93;;;3.63;;
19944;SDS011;10134;50.952;6.930;2022-11-15T19:34:01;8.60;;;3.97;;
19944;SDS011;10134;50.952;6.930;2022-11-15T19:36:31;8.38;;;4.70;;
19944;SDS011;10134;50.952;6.930;2022-11-15T19:39:00;5.45;;;4.15;;
19944;SDS011;10134;50.952;6.930;2022-11-15T19:41:31;7.22;;;4.63;;
19944;SDS011;10134;50.952;6.930;2022-11-15T19:43:58;4.65;;;3.92;;
19944;SDS011;10134;50.952;6.930;2022-11-15T19:46:25;8.23;;;4.47;;
19944;SDS011;10134;50.952;6.930;2022-11-15T19:48:53;7.20;;;4.00;;
19944;SDS011;10134;50.952;6.930;2022-11-15T19:51:22;6.20;;;5.15;;
19944;SDS011;10134;50.952;6.930;2022-11-15T19:53:51;7.85;;;5.47;;
19944;SDS011;10134;50.952;6.930;2022-11-15T19:56:20;8.57;;;5.03;;
19944;SDS011;10134;50.952;6.930;2022-11-15T19:58:51;7.78;;;5.20;;
19944;SDS011;10134;50.952;6.930;2022-11-15T20:03:52;7.93;;;5.15;;
19944;SDS011;10134;50.952;6.930;2022-11-15T20:06:28;6.03;;;4.28;;
19944;SDS011;10134;50.952;6.930;2022-11-15T20:08:56;9.18;;;4.63;;
19944;SDS011;10134;50.952;6.930;2022-11-15T20:11:24;6.10;;;5.13;;
19944;SDS011;10134;50.952;6.930;2022-11-15T20:13:55;7.38;;;4.97;;
19944;SDS011;10134;50.952;6.930;2022-11-15T20:16:24;8.10;;;5.28;;
19944;SDS011;10134;50.952;6.930;2022-11-15T20:18:52;6.60;;;4.57;;
19944;SDS011;10134;50.952;6.930;2022-11-15T20:21:19;9.15;;;5.45;;
19944;SDS011;10134;50.952;6.930;2022-11-15T20:23:47;6.60;;;5.15;;
19944;SDS011;10134;50.952;6.930;2022-11-15T20:26:17;7.22;;;5.13;;
19944;SDS011;10134;50.952;6.930;2022-11-15T20:28:45;9.02;;;5.55;;
19944;SDS011;10134;50.952;6.930;2022-11-15T20:31:15;8.48;;;4.97;;
19944;SDS011;10134;50.952;6.930;2022-11-15T20:33:43;7.38;;;4.93;;
19944;SDS011;10134;50.952;6.930;2022-11-15T20:36:11;6.70;;;5.18;;
19944;SDS011;10134;50.952;6.930;2022-11-15T20:38:40;8.93;;;5.22;;
19944;SDS011;10134;50.952;6.930;2022-11-15T20:41:09;7.75;;;5.40;;
19944;SDS011;10134;50.952;6.930;2022-11-15T20:43:37;8.05;;;5.32;;
19944;SDS011;10134;50.952;6.930;2022-11-15T20:46:09;7.00;;;5.07;;
19944;SDS011;10134;50.952;6.930;2022-11-15T20:48:37;7.85;;;5.60;;
19944;SDS011;10134;50.952;6.930;2022-11-15T20:51:12;9.63;;;5.93;;
19944;SDS011;10134;50.952;6.930;2022-11-15T20:53:42;9.65;;;5.22;;
19944;SDS011;10134;50.952;6.930;2022-11-15T20:56:11;7.80;;;5.22;;
19944;SDS011;10134;50.952;6.930;2022-11-15T20:58:40;9.18;;;5.72;;
19944;SDS011;10134;50.952;6.930;2022-11-15T21:01:10;7.88;;;5.50;;
19944;SDS011;10134;50.952;6.930;2022-11-15T21:03:40;7.70;;;5.13;;
19944;SDS011;10134;50.952;6.930;2022-11-15T21:06:07;7.95;;;5.20;;
19944;SDS011;10134;50.952;6.930;2022-11-15T21:08:35;9.07;;;5.50;;
19944;SDS011;10134;50.952;6.930;2022-11-15T21:11:23;8.80;;;6.28;;
19944;SDS011;10134;50.952;6.930;2022-11-15T21:14:10;8.93;;;6.57;;
19944;SDS011;10134;50.952;6.930;2022-11-15T21:16:38;11.10;;;6.05;;
19944;SDS011;10134;50.952;6.930;2022-11-15T21:19:06;9.10;;;5.68;;
19944;SDS011;10134;50.952;6.930;2022-11-15T21:21:36;7.25;;;5.43;;
19944;SDS011;10134;50.952;6.930;2022-11-15T21:24:04;8.48;;;5.22;;
19944;SDS011;10134;50.952;6.930;2022-11-15T21:26:33;6.82;;;5.22;;
19944;SDS011;10134;50.952;6.930;2022-11-15T21:29:01;7.90;;;5.15;;
19944;SDS011;10134;50.952;6.930;2022-11-15T21:31:29;7.65;;;5.00;;
19944;SDS011;10134;50.952;6.930;2022-11-15T21:33:59;8.45;;;4.93;;
19944;SDS011;10134;50.952;6.930;2022-11-15T21:36:28;6.22;;;4.90;;
19944;SDS011;10134;50.952;6.930;2022-11-15T21:38:55;5.05;;;4.20;;
19944;SDS011;10134;50.952;6.930;2022-11-15T21:41:22;6.43;;;4.78;;
19944;SDS011;10134;50.952;6.930;2022-11-15T21:43:50;7.70;;;5.95;;
19944;SDS011;10134;50.952;6.930;2022-11-15T21:46:17;9.38;;;6.60;;
19944;SDS011;10134;50.952;6.930;2022-11-15T21:48:44;6.43;;;4.75;;
19944;SDS011;10134;50.952;6.930;2022-11-15T21:51:12;7.05;;;5.13;;
19944;SDS011;10134;50.952;6.930;2022-11-15T21:53:39;5.68;;;4.72;;
19944;SDS011;10134;50.952;6.930;2022-11-15T21:56:07;6.78;;;5.05;;
19944;SDS011;10134;50.952;6.930;2022-11-15T21:58:35;6.40;;;4.70;;
19944;SDS011;10134;50.952;6.930;2022-11-15T22:01:02;5.95;;;4.40;;
19944;SDS011;10134;50.952;6.930;2022-11-15T22:03:48;8.90;;;4.47;;
19944;SDS011;10134;50.952;6.930;2022-11-15T22:06:16;8.23;;;4.80;;
19944;SDS011;10134;50.952;6.930;2022-11-15T22:08:44;6.32;;;5.10;;
19944;SDS011;10134;50.952;6.930;2022-11-15T22:11:12;7.57;;;4.70;;
19944;SDS011;10134;50.952;6.930;2022-11-15T22:13:40;5.80;;;4.65;;
19944;SDS011;10134;50.952;6.930;2022-11-15T22:16:08;7.57;;;5.13;;
19944;SDS011;10134;50.952;6.930;2022-11-15T22:18:36;6.57;;;4.43;;
19944;SDS011;10134;50.952;6.930;2022-11-15T22:21:05;6.15;;;4.03;;
19944;SDS011;10134;50.952;6.930;2022-11-15T22:23:36;6.93;;;4.05;;
19944;SDS011;10134;50.952;6.930;2022-11-15T22:26:04;7.55;;;4.68;;
19944;SDS011;10134;50.952;6.930;2022-11-15T22:28:32;6.60;;;4.20;;